METAR AND TAF INFORMATION
METAR FOR LIEO
ADDS - METARS form results

(1601 UTC 02 July 2020)
Data provider http://aviationweather.gov/metar/data/
 
METAR text: LIEO 021550Z 07008KT CAVOK 31/17 Q1010
Conditions at: LIEO (OLBIA/COSTA SMER, IT) observed 1550 UTC 02 July 2020
Temperature: 31.0°C (88°F)
Dewpoint: 17.0°C (63°F) [RH = 43%]
Pressure (altimeter): 29.82 inches Hg (1010.0 mb)
Winds: from the ENE (70 degrees) at 9 MPH (8 knots; 4.1 m/s)
Visibility: 6 or more miles (10+ km)
Ceiling: ceiling and visibility are OK
Clouds: unknown
Weather: no significant weather observed at this time

METAR text: LIEO 021520Z 06008KT 020V100 CAVOK 31/17 Q1011
Conditions at: LIEO (OLBIA/COSTA SMER, IT) observed 1520 UTC 02 July 2020
Temperature: 31.0°C (88°F)
Dewpoint: 17.0°C (63°F) [RH = 43%]
Pressure (altimeter): 29.85 inches Hg (1011.0 mb)
Winds: from the ENE (60 degrees) at 9 MPH (8 knots; 4.1 m/s)
Visibility: 6 or more miles (10+ km)
Ceiling: ceiling and visibility are OK
Clouds: unknown
Weather: no significant weather observed at this time

Forecast for: LIEO (OLBIA/COSTA SMER, IT)
Text: TAF LIEO 021100Z 0212/0312 02012KT 9999 SCT020
Forecast period: 1200 to 1500 UTC 02 July 2020
Forecast type: FROM: standard forecast or significant change
Winds: from the NNE (20 degrees) at 14 MPH (12 knots; 6.2 m/s)
Visibility: 6 or more miles 10+ km)
Ceiling: at least 12,000 feet AGL
Clouds: scattered clouds at 2000 feet AGL
Weather: no significant weather forecast for this period
Text: BECMG 0215/0218 25010KT
Forecast period: 1500 UTC 02 July 2020 to 1200 UTC 03 July 2020
Forecast type: BECOMING: Conditions expected to become as follows by 1800 UTC 02 July 2020
Winds: from the WSW (250 degrees) at 12 MPH (10 knots; 5.1 m/s)
Visibility: 6 or more miles 10+ km)
Ceiling: at least 12,000 feet AGL
Clouds: scattered clouds at 2000 feet AGL
Weather: no significant weather forecast for this period

 AIRPORT MAP

 RUNWAY INFORMATION
Runway 05 Runway length 8025 ft Runway width 148 ft
Runway elevation 35 ft Runway displaced threshold 805 ft Runway heading 53
Runway 23 Runway length 8025 ft Runway width 148 ft
Runway elevation 19 ft Runway displaced threshold 495 ft Runway heading 233

 AIRPORT FREQUENCIES
Type APP Name OLBIA RADA Frequency 125.95 MHZ
Type ATIS Name ATIS Frequency 113.9 MHZ
Type TWR Name OLBIA TWR Frequency 118.975 MHZ

 AIRPORT NEAR NAVIGATION AIDS
Type VOR-DME Name Olbia Costa Smeralda Frequency 113900 KHZ
Type NDB Name Olbia Costa Smeralda Frequency 357 KHZ



Powered by Virtual Airlines Manager [v2.6.2]